KIDI

Details ICAO KIDI
Name INDIANA CO
Region United States
Timezone America/New_York (UTC-5.0)
Plans Departing 0
Arriving 5
Stats Elevation 1,405 ft / 428 m (AMSL)
Location 40.632227° -79.105531°
Runways 1
Magnetic Variation 9.927° W
Sunrise 2017-12-14 12:33:57 UTC / 2017-12-14 07:33:57 Local
Sunset 2017-12-14 21:51:16 UTC / 2017-12-14 16:51:16 Local
Advertisement - Login to hide

Runways

ID Width Length Bearing (true) Bearing (mag) Surface Threshold Offset Overrun Length
10 75 ft / 23 m 3,992 ft / 1,217 m 96.31° 106.24° Asphalt 0 ft / 0 m 0 ft / 0 m
28 75 ft / 23 m 3,992 ft / 1,217 m 276.32° 286.25° Asphalt 0 ft / 0 m 0 ft / 0 m

Map

Weather


0- 5 10 15 20 25 30 35+ Temperature / ° C

Clouds and Precipitation
Forecast for 2017-12-15 00:00 UTC. Updated 2 hours ago

Ground ~20,000 ft ~40,000 ft Winds

METAR

KIDI 142255Z AUTO 00000KT 10SM FEW029 BKN037 BKN043 M08/M12 A3002 RMK A01

TAF

Not found

Frequencies

Recorded 126.62 MHz AWOS 3
Unicom 122.80 MHz UNICOM
Warning: Do not use this data for real-world aviation or navigation. No guarantee of current accuracy is given.